Time;durP1;ratioP1;P1;durP2;ratioP2;P2;SDS_P1;SDS_P2;PMS_P1;PMS_P2;Temp;Humidity;BMP_temperature;BMP_pressure;BME280_temperature;BME280_humidity;BME280_pressure;Samples;Min_cycle;Max_cycle;Signal;HPM_P1;HPM_P2
2022/08/21 00:03:04;;;;;;;23.80;14.40;;;;;;;11.31;100.00;101509.28;10445700;28;20565;-75
2022/08/21 00:08:04;;;;;;;20.80;14.75;;;;;;;11.33;100.00;101501.53;10428191;28;20444;-75
2022/08/21 00:13:05;;;;;;;20.10;14.85;;;;;;;11.39;100.00;101501.84;10444040;28;20056;-75
2022/08/21 00:18:06;;;;;;;17.35;13.45;;;;;;;11.31;100.00;101501.41;10411512;28;20044;-75
2022/08/21 00:23:06;;;;;;;25.50;14.93;;;;;;;11.34;100.00;101498.06;10426608;28;20033;-75
2022/08/21 00:28:07;;;;;;;15.43;13.05;;;;;;;11.27;100.00;101497.75;10443616;28;20041;-75
2022/08/21 00:33:10;;;;;;;18.42;13.95;;;;;;;11.25;100.00;101501.06;10444663;28;20090;-75
2022/08/21 00:38:10;;;;;;;16.30;13.40;;;;;;;11.21;100.00;101489.53;10427700;28;20136;-75
2022/08/21 00:43:12;;;;;;;16.52;12.95;;;;;;;11.27;100.00;101483.72;10425537;28;20276;-75
2022/08/21 00:48:12;;;;;;;24.02;17.75;;;;;;;11.27;100.00;101484.63;10442048;28;20076;-76
2022/08/21 00:53:13;;;;;;;18.77;15.68;;;;;;;11.29;100.00;101487.31;10426713;28;20041;-75
2022/08/21 00:58:13;;;;;;;21.02;17.08;;;;;;;11.19;100.00;101490.25;10425728;28;20183;-75
2022/08/21 01:03:16;;;;;;;21.13;14.98;;;;;;;11.13;100.00;101488.22;10442379;28;20064;-75
2022/08/21 01:08:16;;;;;;;;;;;;;;;11.09;100.00;101486.25;10426293;28;20544;-76
2022/08/21 01:13:18;;;;;;;29.90;17.83;;;;;;;11.01;100.00;101485.81;10442604;28;19921;-75
2022/08/21 01:18:18;;;;;;;26.35;19.10;;;;;;;11.03;100.00;101492.03;10424684;28;20404;-76
2022/08/21 01:23:19;;;;;;;25.40;19.67;;;;;;;11.05;100.00;101492.13;10424980;28;20037;-75
2022/08/21 01:28:19;;;;;;;24.35;16.52;;;;;;;11.04;100.00;101498.19;10442398;28;20060;-76
2022/08/21 01:33:21;;;;;;;27.40;19.20;;;;;;;11.05;100.00;101498.25;10425194;28;20029;-76
2022/08/21 01:38:21;;;;;;;29.23;21.65;;;;;;;11.07;100.00;101496.63;10423705;28;20033;-75
2022/08/21 01:43:22;;;;;;;25.85;20.65;;;;;;;11.07;100.00;101488.75;10440620;28;20514;-76
2022/08/21 01:48:22;;;;;;;25.92;21.15;;;;;;;11.06;100.00;101489.59;10441730;28;20124;-75
2022/08/21 01:53:23;;;;;;;26.15;20.88;;;;;;;11.01;100.00;101480.56;10440547;28;20098;-76
2022/08/21 01:58:23;;;;;;;27.13;21.17;;;;;;;10.93;100.00;101487.09;10441296;28;20127;-75
2022/08/21 02:03:24;;;;;;;24.10;18.38;;;;;;;10.82;100.00;101486.50;10442568;28;20074;-75
2022/08/21 02:08:24;;;;;;;25.80;19.00;;;;;;;10.78;100.00;101481.91;10423890;28;20053;-75
2022/08/21 02:13:25;;;;;;;31.50;22.60;;;;;;;10.75;100.00;101477.38;10423192;28;20104;-75
2022/08/21 02:18:25;;;;;;;29.02;21.90;;;;;;;10.72;100.00;101464.13;10439565;28;20059;-75
2022/08/21 02:23:26;;;;;;;24.67;21.15;;;;;;;10.75;100.00;101464.28;10424237;28;20044;-75
2022/08/21 02:28:26;;;;;;;32.80;25.10;;;;;;;10.68;100.00;101464.75;10414129;28;20025;-75
2022/08/21 02:33:27;;;;;;;31.05;22.52;;;;;;;10.73;100.00;101471.16;10431523;28;20122;-75
2022/08/21 02:38:33;;;;;;;33.05;24.98;;;;;;;10.67;100.00;101461.25;10448992;28;20044;-75
2022/08/21 02:43:33;;;;;;;34.75;24.98;;;;;;;10.62;100.00;101465.34;10431525;28;20400;-75
2022/08/21 02:48:34;;;;;;;28.75;21.80;;;;;;;10.60;100.00;101464.34;10430336;28;20040;-75
2022/08/21 02:53:35;;;;;;;33.00;26.15;;;;;;;10.58;100.00;101461.63;10414103;28;20354;-75
2022/08/21 02:58:43;;;;;;;35.30;26.92;;;;;;;10.57;100.00;101456.31;10447463;28;20064;-75
2022/08/21 03:03:45;;;;;;;37.47;27.05;;;;;;;10.52;100.00;101455.16;10447141;28;20041;-74
2022/08/21 03:08:45;;;;;;;32.92;24.05;;;;;;;10.49;100.00;101452.34;10446735;28;20041;-74
2022/08/21 03:13:46;;;;;;;43.60;26.45;;;;;;;10.43;100.00;101460.75;10446699;28;20061;-76
2022/08/21 03:18:47;;;;;;;33.40;25.63;;;;;;;10.39;100.00;101454.44;10445768;28;20045;-76
2022/08/21 03:23:47;;;;;;;39.63;26.02;;;;;;;10.40;100.00;101460.56;10445761;28;20052;-76
2022/08/21 03:28:48;;;;;;;32.67;26.13;;;;;;;10.35;100.00;101464.59;10445998;28;20121;-76
2022/08/21 03:33:49;;;;;;;31.63;25.25;;;;;;;10.29;100.00;101466.03;10446101;28;20041;-76
2022/08/21 03:38:49;;;;;;;36.28;27.08;;;;;;;10.29;100.00;101473.00;10444116;28;20033;-76
2022/08/21 03:43:50;;;;;;;34.83;26.27;;;;;;;10.24;100.00;101479.69;10446316;28;20462;-76
2022/08/21 03:48:52;;;;;;;31.83;24.77;;;;;;;10.25;100.00;101477.13;10447000;28;20069;-75
2022/08/21 03:53:52;;;;;;;27.75;23.63;;;;;;;10.23;100.00;101480.50;10444163;28;20103;-75
2022/08/21 03:58:53;;;;;;;32.15;23.60;;;;;;;10.33;100.00;101479.31;10446412;28;20124;-76
2022/08/21 04:03:53;;;;;;;29.60;20.73;;;;;;;10.26;100.00;101478.06;10427759;28;20041;-75
2022/08/21 04:08:54;;;;;;;27.88;21.73;;;;;;;10.20;100.00;101480.31;10446720;28;20072;-75
2022/08/21 04:13:55;;;;;;;22.60;19.55;;;;;;;10.18;100.00;101476.69;10443965;28;20120;-75
2022/08/21 04:18:55;;;;;;;33.22;20.23;;;;;;;10.09;100.00;101482.28;10427706;28;20033;-75
2022/08/21 04:23:56;;;;;;;29.92;20.50;;;;;;;10.07;100.00;101476.06;10446056;28;20029;-75
2022/08/21 04:28:57;;;;;;;27.88;17.67;;;;;;;10.05;100.00;101477.66;10442741;28;20395;-75
2022/08/21 04:33:58;;;;;;;24.50;17.77;;;;;;;9.98;100.00;101472.06;10442107;28;20116;-75
2022/08/21 04:38:59;;;;;;;21.08;18.13;;;;;;;10.03;100.00;101474.97;10426465;28;20087;-75
2022/08/21 04:44:00;;;;;;;24.35;18.58;;;;;;;10.08;100.00;101486.63;10442825;28;20097;-75
2022/08/21 04:49:01;;;;;;;25.20;17.60;;;;;;;10.08;100.00;101485.69;10442640;28;20398;-75
2022/08/21 04:54:14;;;;;;;22.48;16.40;;;;;;;10.09;100.00;101484.88;10441764;28;20065;-75
2022/08/21 04:59:17;;;;;;;23.13;16.65;;;;;;;10.05;100.00;101482.91;10411530;28;20044;-75
2022/08/21 05:04:19;;;;;;;23.98;17.05;;;;;;;9.93;100.00;101483.97;10441837;28;20830;-75
2022/08/21 05:09:20;;;;;;;21.17;15.07;;;;;;;9.99;100.00;101492.19;10441687;28;20132;-75
2022/08/21 05:14:20;;;;;;;25.10;16.38;;;;;;;10.01;100.00;101494.00;10441232;28;20035;-75
2022/08/21 05:19:21;;;;;;;19.42;15.35;;;;;;;10.10;100.00;101479.78;10442265;28;20071;-75
2022/08/21 05:24:21;;;;;;;21.45;14.82;;;;;;;10.19;100.00;101487.25;10441459;28;20091;-75
2022/08/21 05:29:22;;;;;;;20.35;13.85;;;;;;;10.28;100.00;101498.25;10440237;28;20039;-75
2022/08/21 05:34:23;;;;;;;17.90;12.40;;;;;;;10.37;100.00;101496.97;10425103;28;20044;-75
2022/08/21 05:39:23;;;;;;;15.43;12.20;;;;;;;10.46;100.00;101494.06;10424358;28;20090;-75
2022/08/21 05:44:24;;;;;;;20.20;13.27;;;;;;;10.58;100.00;101493.03;10440717;28;20446;-75
2022/08/21 05:49:24;;;;;;;19.33;11.80;;;;;;;10.80;100.00;101496.88;10442886;28;20119;-75
2022/08/21 05:54:25;;;;;;;23.15;13.52;;;;;;;11.01;100.00;101494.59;10425004;28;20366;-76
2022/08/21 05:59:28;;;;;;;17.15;12.23;;;;;;;11.95;100.00;101494.31;10424526;28;20025;-75
2022/08/21 06:04:28;;;;;;;13.13;7.45;;;;;;;13.63;100.00;101498.06;10449208;28;20044;-75
2022/08/21 06:09:29;;;;;;;13.05;6.47;;;;;;;15.60;100.00;101498.22;10448680;28;20126;-76
2022/08/21 06:14:30;;;;;;;6.25;3.92;;;;;;;17.22;86.46;101501.91;10450751;28;20033;-76
2022/08/21 06:19:30;;;;;;;10.85;6.03;;;;;;;18.36;76.78;101503.31;10450204;28;20049;-76
2022/08/21 06:24:31;;;;;;;11.63;4.07;;;;;;;19.44;71.64;101501.44;10449631;28;20032;-77
2022/08/21 06:29:32;;;;;;;6.53;3.20;;;;;;;20.66;68.03;101489.53;10446490;28;20120;-77
2022/08/21 06:34:35;;;;;;;10.00;3.67;;;;;;;21.05;65.45;101491.03;10447604;28;20058;-77
2022/08/21 06:39:36;;;;;;;6.68;3.00;;;;;;;21.69;59.79;101482.09;10447297;28;20029;-76
2022/08/21 06:44:36;;;;;;;12.23;4.43;;;;;;;21.89;60.43;101493.88;10450062;28;20112;-76
2022/08/21 06:49:37;;;;;;;6.37;3.40;;;;;;;22.10;60.87;101499.44;10448081;28;20199;-77
2022/08/21 06:54:37;;;;;;;4.83;2.63;;;;;;;22.36;56.81;101497.88;10445831;28;20106;-76
2022/08/21 06:59:38;;;;;;;10.17;3.23;;;;;;;23.38;54.16;101495.94;10446485;28;20041;-77
2022/08/21 07:04:38;;;;;;;8.57;2.30;;;;;;;23.42;51.82;101497.72;10430844;28;20123;-76
2022/08/21 07:09:39;;;;;;;6.13;2.13;;;;;;;23.54;55.07;101507.59;10447940;28;20037;-77
2022/08/21 07:14:40;;;;;;;15.13;4.30;;;;;;;24.44;50.19;101507.78;10447270;28;20047;-76
2022/08/21 07:19:40;;;;;;;7.63;2.63;;;;;;;24.80;49.62;101502.44;10448478;28;20037;-76
2022/08/21 07:24:40;;;;;;;9.53;3.23;;;;;;;24.44;48.25;101493.50;10446939;28;20135;-75
2022/08/21 07:29:41;;;;;;;17.33;3.77;;;;;;;24.05;53.14;101501.53;10443075;28;20087;-76
2022/08/21 07:34:42;;;;;;;8.00;2.67;;;;;;;24.61;49.61;101491.72;10431571;28;20037;-77
2022/08/21 07:39:43;;;;;;;9.05;3.25;;;;;;;25.26;47.90;101490.72;10442991;28;20060;-76
2022/08/21 07:44:44;;;;;;;6.65;3.33;;;;;;;25.62;46.67;101496.84;10444522;28;20036;-76
2022/08/21 07:49:46;;;;;;;11.07;3.10;;;;;;;25.42;48.08;101488.00;10442909;28;20045;-78
2022/08/21 07:54:46;;;;;;;;;;;;;;;26.59;43.88;101483.66;10426028;28;20106;-77
2022/08/21 07:59:47;;;;;;;10.37;3.80;;;;;;;26.56;45.72;101489.06;10425800;28;19936;-75
2022/08/21 08:04:47;;;;;;;5.57;2.40;;;;;;;25.86;46.01;101486.91;10445179;28;20186;-76
2022/08/21 08:09:48;;;;;;;9.90;3.03;;;;;;;24.61;49.53;101490.84;10426864;28;20037;-77
2022/08/21 08:14:48;;;;;;;9.03;4.13;;;;;;;24.56;49.77;101481.94;10445651;28;20114;-76
2022/08/21 08:19:49;;;;;;;11.07;2.67;;;;;;;24.77;49.21;101481.03;10444751;28;20120;-75
2022/08/21 08:24:51;;;;;;;8.53;2.73;;;;;;;25.03;48.72;101478.31;10425687;28;20041;-76
2022/08/21 08:29:51;;;;;;;7.05;2.25;;;;;;;26.45;45.73;101470.38;10427583;28;20052;-76
2022/08/21 08:34:52;;;;;;;8.43;3.17;;;;;;;27.44;43.10;101467.53;10476283;28;20124;-74
2022/08/21 08:39:52;;;;;;;5.37;2.30;;;;;;;28.19;41.86;101460.22;10441987;28;20029;-75
2022/08/21 08:45:02;;;;;;;6.20;2.77;;;;;;;26.85;43.60;101466.44;10445316;28;20064;-76
2022/08/21 08:50:06;;;;;;;8.35;3.33;;;;;;;27.83;41.90;101458.03;10427297;28;20111;-76
2022/08/21 08:55:09;;;;;;;5.97;2.20;;;;;;;27.33;40.88;101462.28;10425312;28;20462;-76
2022/08/21 09:00:12;;;;;;;4.20;1.85;;;;;;;24.32;47.52;101451.63;10425284;28;20409;-77
2022/08/21 09:05:41;;;;;;;11.73;2.22;;;;;;;23.18;50.76;101451.31;10426699;28;20190;-77
2022/08/21 09:11:10;;;;;;;8.68;3.33;;;;;;;22.75;52.34;101450.19;10427535;28;20029;-77
2022/08/21 09:16:19;;;;;;;6.82;2.10;;;;;;;22.91;54.80;101446.72;10425047;28;20703;-78
2022/08/21 09:21:22;;;;;;;6.97;2.38;;;;;;;25.38;47.44;101433.53;10442931;28;20041;-76
2022/08/21 09:26:25;;;;;;;3.50;1.50;;;;;;;27.99;41.98;101437.19;10441448;28;20131;-74
2022/08/21 09:31:33;;;;;;;8.27;2.15;;;;;;;28.62;39.17;101437.00;10441186;28;20040;-75
2022/08/21 09:36:45;;;;;;;8.65;2.22;;;;;;;27.23;42.44;101440.91;10400430;28;20041;-76
2022/08/21 09:41:46;;;;;;;8.23;3.00;;;;;;;28.06;39.55;101439.78;10383573;28;20048;-76
2022/08/21 09:46:50;;;;;;;6.27;1.53;;;;;;;28.43;41.04;101431.09;10383696;28;20500;-75
2022/08/21 09:51:51;;;;;;;6.32;1.98;;;;;;;28.11;38.78;101429.81;10437596;28;20077;-76
2022/08/21 10:02:26;;;;;;;5.28;1.58;;;;;;;29.65;37.29;101430.44;10454358;28;20061;-77
2022/08/21 10:07:29;;;;;;;4.10;2.20;;;;;;;27.37;41.01;101432.69;10424221;28;20044;-77
2022/08/21 10:12:39;;;;;;;4.68;1.75;;;;;;;28.65;39.81;101426.19;10423942;28;20033;-77
2022/08/21 10:18:03;;;;;;;4.30;1.38;;;;;;;27.62;39.47;101436.84;10424054;28;20485;-76
2022/08/21 10:23:29;;;;;;;5.97;2.13;;;;;;;27.33;42.91;101425.56;10423086;28;20474;-78
2022/08/21 10:28:48;;;;;;;6.97;2.83;;;;;;;28.64;38.26;101418.16;10437345;28;20538;-78
2022/08/21 10:34:13;;;;;;;6.00;1.80;;;;;;;29.16;37.81;101417.13;10442018;28;20033;-77
2022/08/21 10:39:32;;;;;;;8.43;2.67;;;;;;;29.80;36.65;101412.13;10441276;28;20080;-77
2022/08/21 10:44:50;;;;;;;8.68;2.38;;;;;;;29.74;36.98;101414.03;10439917;28;20037;-77
2022/08/21 10:49:56;;;;;;;6.75;1.63;;;;;;;29.60;37.35;101422.44;10448275;28;20041;-77
2022/08/21 10:55:02;;;;;;;10.75;2.47;;;;;;;30.87;36.14;101423.75;10446796;28;20053;-76
2022/08/21 11:00:20;;;;;;;10.63;3.35;;;;;;;30.16;37.05;101431.03;10441392;28;20151;-78
2022/08/21 11:05:28;;;;;;;6.10;1.75;;;;;;;29.47;34.94;101420.94;10419826;28;20575;-78
2022/08/21 11:10:42;;;;;;;9.13;2.78;;;;;;;29.25;37.31;101420.53;10410415;28;20086;-80
2022/08/21 11:15:58;;;;;;;5.97;1.67;;;;;;;28.10;38.17;101420.84;10394089;28;20465;-76
2022/08/21 11:21:30;;;;;;;7.05;2.15;;;;;;;28.33;39.05;101410.66;10427276;28;20049;-77
2022/08/21 11:26:54;;;;;;;6.32;1.95;;;;;;;29.02;38.31;101409.31;10438965;28;20092;-77
2022/08/21 11:32:17;;;;;;;7.40;2.33;;;;;;;27.57;41.38;101412.75;10426258;28;20048;-77
2022/08/21 11:37:40;;;;;;;8.02;1.83;;;;;;;29.99;36.93;101405.38;10445054;28;20079;-77
2022/08/21 11:42:50;;;;;;;5.88;2.35;;;;;;;32.21;31.05;101403.38;10443734;28;20049;-80
2022/08/21 11:47:56;;;;;;;5.50;1.98;;;;;;;33.05;30.20;101403.97;10442587;28;20090;-79
2022/08/21 11:53:16;;;;;;;5.28;1.77;;;;;;;33.82;28.98;101389.16;10443584;28;20060;-79
2022/08/21 11:58:25;;;;;;;5.70;1.70;;;;;;;31.17;32.42;101396.78;10443227;28;20094;-79
2022/08/21 12:03:34;;;;;;;4.63;1.58;;;;;;;31.06;32.84;101399.75;10427728;28;20041;-78
2022/08/21 12:08:37;;;;;;;5.78;2.08;;;;;;;28.83;35.88;101394.44;10453717;28;20041;-78
2022/08/21 12:13:40;;;;;;;6.10;1.90;;;;;;;28.01;37.53;101390.53;10441336;28;20123;-77
2022/08/21 12:18:41;;;;;;;5.20;1.65;;;;;;;26.89;40.03;101408.22;10440836;28;20029;-77
2022/08/21 12:24:04;;;;;;;7.95;2.83;;;;;;;27.62;41.16;101407.28;10423778;28;20037;-77
2022/08/21 12:29:07;;;;;;;4.30;1.77;;;;;;;27.47;38.88;101414.63;10440610;28;20044;-77
2022/08/21 12:34:08;;;;;;;3.97;1.42;;;;;;;29.62;35.01;101406.25;10442046;28;20481;-77
2022/08/21 12:39:12;;;;;;;3.25;1.90;;;;;;;31.75;31.28;101400.41;10458821;28;20033;-77
2022/08/21 12:44:15;;;;;;;7.32;1.80;;;;;;;31.79;30.65;101391.25;10445206;28;20048;-77
2022/08/21 12:49:35;;;;;;;5.32;1.65;;;;;;;31.53;30.24;101392.94;10414700;28;20560;-78
2022/08/21 12:54:42;;;;;;;5.72;1.80;;;;;;;30.88;30.72;101394.91;10401336;28;20049;-77
2022/08/21 12:59:42;;;;;;;4.45;1.42;;;;;;;31.80;29.54;101397.56;10433334;28;20037;-78
2022/08/21 13:04:43;;;;;;;3.23;1.23;;;;;;;31.53;29.42;101400.19;10401670;28;20106;-79
2022/08/21 13:09:48;;;;;;;10.37;2.40;;;;;;;32.31;30.40;101385.00;10399266;28;20037;-78
2022/08/21 13:14:49;;;;;;;5.50;1.48;;;;;;;32.60;26.44;101377.63;10417586;28;20032;-77
2022/08/21 13:19:54;;;;;;;;;;;;;;;32.76;28.97;101376.13;10438987;28;20033;-79
2022/08/21 13:24:54;;;;;;;3.15;1.23;;;;;;;30.40;29.69;101380.91;10438734;28;19925;-78
2022/08/21 13:30:22;;;;;;;9.10;3.13;;;;;;;30.72;31.70;101375.56;10439000;28;20025;-78
2022/08/21 13:35:26;;;;;;;6.85;1.90;;;;;;;31.78;29.28;101375.94;10435718;28;20449;-78
2022/08/21 13:40:46;;;;;;;5.05;1.45;;;;;;;31.39;29.36;101371.78;10440881;28;20039;-79
2022/08/21 13:45:49;;;;;;;4.88;1.85;;;;;;;31.42;31.26;101377.09;10446653;28;20472;-79
2022/08/21 13:50:50;;;;;;;5.72;2.03;;;;;;;32.21;28.21;101370.88;10439093;28;20450;-77
2022/08/21 13:55:51;;;;;;;5.93;1.98;;;;;;;30.27;31.08;101379.47;10423333;28;20033;-77
2022/08/21 14:00:52;;;;;;;6.00;1.57;;;;;;;28.19;34.83;101376.81;10420623;28;20044;-77
2022/08/21 14:05:52;;;;;;;4.38;1.65;;;;;;;29.71;32.85;101365.56;10422582;28;20037;-77
2022/08/21 14:10:53;;;;;;;11.63;1.73;;;;;;;31.29;29.08;101371.16;10423787;28;20049;-78
2022/08/21 14:15:58;;;;;;;5.03;1.40;;;;;;;28.81;33.83;101378.34;10422521;28;20037;-77
2022/08/21 14:21:06;;;;;;;5.28;1.55;;;;;;;29.01;34.75;101361.75;10441482;28;20404;-77
2022/08/21 14:26:07;;;;;;;5.38;1.92;;;;;;;28.22;34.04;101365.06;10448090;28;20057;-77
2022/08/21 14:31:18;;;;;;;7.83;2.13;;;;;;;27.84;34.83;101354.94;10446191;28;20485;-77
2022/08/21 14:36:19;;;;;;;3.88;1.25;;;;;;;26.71;37.93;101361.88;10449806;28;20041;-77
2022/08/21 14:41:22;;;;;;;7.93;2.00;;;;;;;27.03;37.27;101351.66;10429634;28;20053;-77
2022/08/21 14:46:27;;;;;;;5.68;2.00;;;;;;;26.64;38.29;101352.09;10446601;28;20847;-77
2022/08/21 14:51:28;;;;;;;7.35;1.60;;;;;;;26.04;38.72;101350.91;10447369;28;20032;-77
2022/08/21 14:56:28;;;;;;;4.77;1.53;;;;;;;26.70;37.05;101351.13;10447288;28;20362;-77
2022/08/21 15:01:29;;;;;;;3.67;1.50;;;;;;;27.24;36.86;101358.53;10446167;28;20080;-77
2022/08/21 15:06:29;;;;;;;3.80;1.30;;;;;;;28.36;35.18;101354.94;10447274;28;20404;-77
2022/08/21 15:11:30;;;;;;;5.30;1.63;;;;;;;29.60;33.68;101346.06;10447596;28;20409;-77
2022/08/21 15:16:31;;;;;;;4.97;1.90;;;;;;;29.66;31.76;101343.22;10445015;28;20037;-76
2022/08/21 15:21:31;;;;;;;7.37;2.60;;;;;;;28.28;33.42;101349.72;10447578;28;20075;-77
2022/08/21 15:26:32;;;;;;;3.20;1.37;;;;;;;27.04;36.11;101345.38;10445362;28;20093;-77
2022/08/21 15:31:33;;;;;;;7.93;2.17;;;;;;;26.12;36.66;101342.78;10444843;28;20045;-78
2022/08/21 15:36:33;;;;;;;7.57;2.30;;;;;;;25.98;38.05;101350.97;10446312;28;20543;-77
2022/08/21 15:41:34;;;;;;;13.53;4.17;;;;;;;25.36;39.57;101355.84;10445378;28;20100;-78
2022/08/21 15:46:34;;;;;;;5.67;2.77;;;;;;;25.22;39.33;101361.28;10447608;28;20510;-77
2022/08/21 15:51:35;;;;;;;5.27;2.00;;;;;;;25.07;40.46;101356.00;10444631;28;20068;-78
2022/08/21 15:56:36;;;;;;;5.67;2.90;;;;;;;24.95;39.81;101356.97;10444246;28;20044;-77
2022/08/21 16:01:37;;;;;;;10.88;2.20;;;;;;;25.07;39.96;101342.63;10444285;28;20029;-77
2022/08/21 16:06:38;;;;;;;7.60;1.90;;;;;;;25.13;40.99;101355.97;10427841;28;20102;-77
2022/08/21 16:11:38;;;;;;;5.63;2.23;;;;;;;24.77;41.64;101353.47;10441867;28;20499;-77
2022/08/21 16:16:39;;;;;;;8.47;2.87;;;;;;;24.43;41.68;101347.28;10422868;28;20084;-77
2022/08/21 16:21:39;;;;;;;8.13;2.37;;;;;;;24.13;41.46;101347.34;10386286;28;20477;-77
2022/08/21 16:26:40;;;;;;;8.97;3.37;;;;;;;23.97;42.61;101349.09;10378672;28;20034;-76
2022/08/21 16:31:41;;;;;;;6.97;2.50;;;;;;;23.83;43.89;101351.78;10401670;28;20528;-77
2022/08/21 16:36:41;;;;;;;6.73;2.27;;;;;;;23.45;44.00;101340.16;10403319;28;20030;-77
2022/08/21 16:41:42;;;;;;;4.90;2.97;;;;;;;23.05;47.49;101342.69;10385724;28;20066;-77
2022/08/21 16:46:42;;;;;;;8.70;2.83;;;;;;;22.73;48.93;101340.78;10383287;28;20050;-76
2022/08/21 16:51:43;;;;;;;6.83;3.57;;;;;;;22.75;46.50;101328.34;10438673;28;20087;-76
2022/08/21 16:56:43;;;;;;;223.53;164.50;;;;;;;22.64;46.96;101335.41;10443541;28;20067;-77
2022/08/21 17:01:44;;;;;;;40.63;32.63;;;;;;;22.36;52.08;101341.47;10443437;28;20070;-77
2022/08/21 17:06:45;;;;;;;7.60;3.42;;;;;;;22.06;50.62;101344.78;10441720;28;20071;-76
2022/08/21 17:11:48;;;;;;;9.70;2.80;;;;;;;21.77;52.42;101338.34;10440475;28;20033;-77
2022/08/21 17:16:50;;;;;;;11.10;3.75;;;;;;;21.62;51.14;101331.06;10470497;28;20400;-75
2022/08/21 17:21:50;;;;;;;;;;;;;;;21.35;54.97;101327.25;10443402;28;20123;-76
2022/08/21 17:26:51;;;;;;;5.57;2.90;;;;;;;20.91;58.36;101341.88;10419210;28;20289;-77
2022/08/21 17:31:51;;;;;;;6.85;3.30;;;;;;;20.41;58.03;101339.38;10405374;28;20823;-77
2022/08/21 17:36:52;;;;;;;9.38;4.55;;;;;;;20.00;60.82;101344.09;10399072;28;20061;-77
2022/08/21 17:41:52;;;;;;;5.85;3.47;;;;;;;19.63;63.18;101346.94;10399399;28;20132;-77
2022/08/21 17:46:53;;;;;;;12.98;4.22;;;;;;;19.37;66.74;101346.50;10399384;28;20041;-77
2022/08/21 17:51:54;;;;;;;8.68;4.97;;;;;;;19.14;67.26;101340.72;10399598;28;20068;-77
2022/08/21 17:56:54;;;;;;;13.48;4.93;;;;;;;18.99;66.99;101350.16;10410616;28;20135;-77
2022/08/21 18:02:00;;;;;;;13.02;4.70;;;;;;;18.86;67.04;101348.06;10448138;28;20087;-77
2022/08/21 18:07:00;;;;;;;7.05;4.43;;;;;;;18.72;67.45;101345.16;10433913;28;20036;-77
2022/08/21 18:12:01;;;;;;;10.82;5.57;;;;;;;18.51;68.29;101351.75;10480233;28;20572;-77
2022/08/21 18:17:14;;;;;;;12.13;6.32;;;;;;;18.34;70.30;101354.00;10445035;28;20031;-77
2022/08/21 18:22:15;;;;;;;8.55;5.90;;;;;;;18.13;71.10;101350.00;10446384;28;20066;-77
2022/08/21 18:27:15;;;;;;;13.68;6.00;;;;;;;18.00;72.42;101353.19;10446876;28;20044;-77
2022/08/21 18:32:18;;;;;;;7.70;5.55;;;;;;;17.86;73.57;101353.72;10447335;28;20484;-77
2022/08/21 18:37:18;;;;;;;11.85;7.28;;;;;;;17.72;73.73;101355.09;10429643;28;20040;-77
2022/08/21 18:42:19;;;;;;;11.45;6.47;;;;;;;17.54;74.21;101361.72;10448006;28;20043;-77
2022/08/21 18:47:27;;;;;;;12.65;5.43;;;;;;;17.34;74.83;101362.91;10448800;28;20473;-76
2022/08/21 18:52:28;;;;;;;11.15;6.10;;;;;;;17.14;76.68;101363.25;10445511;28;20443;-77
2022/08/21 18:57:29;;;;;;;11.95;6.30;;;;;;;16.95;78.38;101370.63;10444485;28;20121;-77
2022/08/21 19:02:29;;;;;;;10.55;5.30;;;;;;;16.77;79.03;101372.72;10430084;28;20041;-77
2022/08/21 19:07:30;;;;;;;10.73;5.88;;;;;;;16.67;80.58;101372.44;10447568;28;20073;-78
2022/08/21 19:12:30;;;;;;;8.45;5.97;;;;;;;16.56;83.37;101372.13;10391508;28;20060;-76
2022/08/21 19:17:31;;;;;;;10.88;6.88;;;;;;;16.38;83.67;101374.19;10392917;28;20393;-77
2022/08/21 19:22:31;;;;;;;15.18;7.03;;;;;;;16.23;83.76;101382.50;10400660;28;20132;-76
2022/08/21 19:27:32;;;;;;;16.65;7.50;;;;;;;16.09;84.58;101384.69;10397404;28;20064;-77
2022/08/21 19:32:34;;;;;;;7.95;6.40;;;;;;;15.98;85.12;101389.59;10382515;28;20080;-78
2022/08/21 19:37:34;;;;;;;10.07;7.60;;;;;;;15.89;86.03;101384.00;10369129;28;20508;-77
2022/08/21 19:42:35;;;;;;;15.50;9.05;;;;;;;15.86;87.21;101390.94;10395963;28;20061;-76
2022/08/21 19:47:35;;;;;;;14.07;8.68;;;;;;;15.84;87.42;101408.47;10382789;28;20037;-77
2022/08/21 19:52:36;;;;;;;16.45;7.15;;;;;;;15.77;87.15;101403.81;10382417;28;20033;-76
2022/08/21 19:57:37;;;;;;;33.28;10.50;;;;;;;15.73;87.73;101407.19;10396463;28;20034;-74
2022/08/21 20:02:38;;;;;;;10.43;7.07;;;;;;;15.68;88.76;101408.78;10400293;28;20508;-76
2022/08/21 20:07:39;;;;;;;11.02;7.38;;;;;;;15.62;89.21;101406.84;10401715;28;20565;-76
2022/08/21 20:12:40;;;;;;;9.60;7.05;;;;;;;15.56;89.28;101409.25;10401718;28;20037;-75
2022/08/21 20:17:41;;;;;;;8.77;7.03;;;;;;;15.51;89.13;101406.44;10381828;28;20042;-76
2022/08/21 20:22:41;;;;;;;9.38;7.22;;;;;;;15.47;89.76;101417.72;10381943;28;20036;-77
2022/08/21 20:27:42;;;;;;;11.52;6.78;;;;;;;15.46;90.07;101417.66;10398896;28;20051;-77
2022/08/21 20:32:42;;;;;;;9.82;7.30;;;;;;;15.40;89.94;101416.59;10398103;28;20037;-77
2022/08/21 20:37:43;;;;;;;15.45;5.88;;;;;;;15.33;89.78;101424.22;10398955;28;20120;-76
2022/08/21 20:42:48;;;;;;;8.85;5.63;;;;;;;15.23;89.74;101415.09;10423091;28;20401;-76
2022/08/21 20:47:48;;;;;;;13.48;7.68;;;;;;;15.14;90.64;101415.63;10388159;28;20489;-76
2022/08/21 20:52:49;;;;;;;14.27;7.68;;;;;;;15.02;90.65;101417.78;10381740;28;20029;-77
2022/08/21 20:57:59;;;;;;;10.68;7.10;;;;;;;14.91;91.28;101417.41;10383713;28;20490;-76
2022/08/21 21:03:20;;;;;;;10.75;6.90;;;;;;;14.87;90.81;101419.00;10439713;28;20099;-76
2022/08/21 21:08:54;;;;;;;9.32;5.82;;;;;;;14.85;91.34;101412.78;10474548;28;20120;-76
2022/08/21 21:14:10;;;;;;;9.90;5.15;;;;;;;14.71;92.25;101417.53;10430943;28;20072;-77
2022/08/21 21:19:18;;;;;;;21.10;5.50;;;;;;;14.56;92.40;101409.84;10441621;28;20386;-76
2022/08/21 21:24:18;;;;;;;10.63;5.00;;;;;;;14.45;92.08;101408.53;10426277;28;20489;-77
2022/08/21 21:29:28;;;;;;;11.38;5.53;;;;;;;14.33;91.94;101409.81;10440841;28;20047;-77
2022/08/21 21:34:38;;;;;;;9.07;4.55;;;;;;;14.32;92.13;101415.03;10424257;28;20033;-77
2022/08/21 21:39:47;;;;;;;13.75;5.38;;;;;;;14.17;92.50;101403.03;10425208;28;20060;-76
2022/08/21 21:45:09;;;;;;;9.73;6.93;;;;;;;14.06;93.09;101412.22;10423166;28;20544;-76
2022/08/21 21:50:50;;;;;;;11.25;5.28;;;;;;;14.02;93.71;101415.56;10440334;28;20030;-76
2022/08/21 21:56:13;;;;;;;11.75;4.97;;;;;;;14.00;93.63;101412.84;10352916;28;20106;-77
2022/08/21 22:01:16;;;;;;;12.07;6.32;;;;;;;13.98;94.14;101421.53;10440413;28;20404;-76
2022/08/21 22:06:44;;;;;;;10.35;5.07;;;;;;;13.95;94.92;101419.66;10442334;28;20507;-76
2022/08/21 22:11:57;;;;;;;9.35;5.65;;;;;;;13.93;96.37;101416.97;10440325;28;20041;-76
2022/08/21 22:16:58;;;;;;;12.23;8.23;;;;;;;13.95;96.24;101412.66;10439497;28;20057;-76
2022/08/21 22:22:03;;;;;;;7.20;4.53;;;;;;;13.89;96.57;101419.38;10408032;28;20071;-76
2022/08/21 22:27:18;;;;;;;10.77;5.97;;;;;;;13.86;97.92;101424.50;10439246;28;20060;-76
2022/08/21 22:32:38;;;;;;;8.40;5.22;;;;;;;13.80;97.54;101419.91;10440674;28;20096;-76
2022/08/21 22:37:42;;;;;;;19.73;5.88;;;;;;;13.78;97.93;101419.81;10439096;28;20083;-76
2022/08/21 22:42:42;;;;;;;9.95;5.90;;;;;;;13.73;97.94;101410.84;10442337;28;20040;-76
2022/08/21 22:47:43;;;;;;;11.00;5.78;;;;;;;13.65;97.86;101412.22;10431682;28;20480;-77
2022/08/21 22:52:46;;;;;;;11.07;6.25;;;;;;;13.56;97.80;101415.38;10446992;28;20082;-76
2022/08/21 22:57:47;;;;;;;11.52;6.22;;;;;;;13.48;98.06;101408.88;10447104;28;20029;-76
2022/08/21 23:02:50;;;;;;;13.93;7.47;;;;;;;13.44;98.34;101407.81;10431424;28;20041;-76
2022/08/21 23:07:51;;;;;;;7.68;5.28;;;;;;;13.53;98.14;101409.06;10446855;28;20047;-76